Time;durP1;ratioP1;P1;durP2;ratioP2;P2;SDS_P1;SDS_P2;PMS_P1;PMS_P2;Temp;Humidity;BMP_temperature;BMP_pressure;BME280_temperature;BME280_humidity;BME280_pressure;Samples;Min_cycle;Max_cycle;Signal;HPM_P1;HPM_P2
2023/09/24 00:01:49;;;;;;;9.35;3.80;;;;;;;;;;4924912;29;20066;-89
2023/09/24 00:04:17;;;;;;;6.93;3.33;;;;;;;;;;4926934;29;20039;-86
2023/09/24 00:06:45;;;;;;;7.45;3.20;;;;;;;;;;4927618;29;20039;-90
2023/09/24 00:09:13;;;;;;;6.20;3.00;;;;;;;;;;4929355;29;20704;-89
2023/09/24 00:11:39;;;;;;;6.50;2.88;;;;;;;;;;4926572;29;20493;-86
2023/09/24 00:14:05;;;;;;;5.05;2.80;;;;;;;;;;4930181;29;20024;-87
2023/09/24 00:16:31;;;;;;;6.30;2.72;;;;;;;;;;4926482;29;20043;-87
2023/09/24 00:18:57;;;;;;;8.05;3.75;;;;;;;;;;4922427;29;20028;-87
2023/09/24 00:21:25;;;;;;;5.78;2.65;;;;;;;;;;4922662;29;20068;-85
2023/09/24 00:23:51;;;;;;;6.30;2.85;;;;;;;;;;4935175;29;20032;-88
2023/09/24 00:26:18;;;;;;;6.85;3.25;;;;;;;;;;4922771;29;20474;-83
2023/09/24 00:28:44;;;;;;;7.53;2.85;;;;;;;;;;4925856;29;20670;-85
2023/09/24 00:31:10;;;;;;;6.72;3.45;;;;;;;;;;4922095;29;20040;-85
2023/09/24 00:33:36;;;;;;;6.82;2.95;;;;;;;;;;4921936;29;20047;-86
2023/09/24 00:36:02;;;;;;;6.50;2.80;;;10.20;99.90;;;;;;4923011;29;20032;-86
2023/09/24 00:38:28;;;;;;;7.05;3.13;;;;;;;;;;4921642;29;20032;-86
2023/09/24 00:40:54;;;;;;;5.15;2.97;;;;;;;;;;4920156;29;20112;-87
2023/09/24 00:43:28;;;;;;;8.05;3.55;;;;;;;;;;4926675;29;20036;-85
2023/09/24 00:45:54;;;;;;;7.95;3.50;;;;;;;;;;4920745;29;20028;-85
2023/09/24 00:48:20;;;;;;;6.57;3.22;;;;;;;;;;4928654;29;20032;-86
2023/09/24 00:50:46;;;;;;;5.38;3.15;;;;;;;;;;4925227;29;20522;-86
2023/09/24 00:53:13;;;;;;;8.90;3.08;;;;;;;;;;4923303;29;20024;-85
2023/09/24 00:55:40;;;;;;;7.72;3.58;;;;;;;;;;4939873;29;20445;-88
2023/09/24 00:58:06;;;;;;;7.40;3.70;;;;;;;;;;4940527;28;20043;-86
2023/09/24 01:00:34;;;;;;;7.38;3.60;;;;;;;;;;4928755;29;20032;-86
2023/09/24 01:03:00;;;;;;;6.55;3.50;;;;;;;;;;4938972;29;20032;-88
2023/09/24 01:05:27;;;;;;;7.93;3.25;;;;;;;;;;4927222;29;20024;-86
2023/09/24 01:07:54;;;;;;;7.97;3.78;;;;;;;;;;4921129;29;20096;-85
2023/09/24 01:10:25;;;;;;;7.97;3.30;;;;;;;;;;4923370;29;20065;-87
2023/09/24 01:13:04;;;;;;;6.90;3.53;;;;;;;;;;4923510;29;20028;-86
2023/09/24 01:15:31;;;;;;;7.13;3.42;;;;;;;;;;4923709;29;20052;-88
2023/09/24 01:18:00;;;;;;;6.90;3.15;;;;;;;;;;4927832;29;20020;-86
2023/09/24 01:20:27;;;;;;;7.95;3.60;;;;;;;;;;4929482;29;20032;-85
2023/09/24 01:22:53;;;;;;;7.10;3.03;;;;;;;;;;4926150;29;20043;-87
2023/09/24 01:25:19;;;;;;;5.95;3.25;;;;;;;;;;4923284;29;20470;-88
2023/09/24 01:27:46;;;;;;;7.88;3.22;;;;;;;;;;4927142;29;20028;-88
2023/09/24 01:30:15;;;;;;;8.55;3.63;;;;;;;;;;4926294;29;20042;-86
2023/09/24 01:32:41;;;;;;;7.68;3.83;;;;;;;;;;4924392;29;20115;-85
2023/09/24 01:35:08;;;;;;;6.90;3.50;;;;;;;;;;4924429;29;20031;-83
2023/09/24 01:37:34;;;;;;;6.43;3.25;;;;;;;;;;4926750;29;20031;-84
2023/09/24 01:40:20;;;;;;;6.70;3.40;;;;;;;;;;4922468;29;20032;-84
2023/09/24 01:42:46;;;;;;;7.82;3.53;;;;;;;;;;4922872;29;20025;-86
2023/09/24 01:45:13;;;;;;;8.23;3.40;;;;;;;;;;4923971;29;20521;-87
2023/09/24 01:47:39;;;;;;;5.90;3.75;;;;;;;;;;4926592;29;20036;-86
2023/09/24 01:50:07;;;;;;;7.45;3.55;;;;;;;;;;4926047;29;20027;-86
2023/09/24 01:52:37;;;;;;;7.82;3.33;;;;;;;;;;4942887;29;20040;-88
2023/09/24 01:55:03;;;;;;;6.32;3.55;;;;;;;;;;4940620;29;20023;-89
2023/09/24 01:57:29;;;;;;;6.90;3.55;;;;;;;;;;4945486;29;20028;-85
2023/09/24 02:00:11;;;;;;;7.38;3.42;;;;;;;;;;4929433;29;20039;-88
2023/09/24 02:02:38;;;;;;;6.13;3.42;;;;;;;;;;4931734;29;20063;-85
2023/09/24 02:05:06;;;;;;;6.95;3.33;;;;;;;;;;4931562;29;20024;-85
2023/09/24 02:07:32;;;;;;;6.72;3.20;;;;;;;;;;4924864;29;20032;-86
2023/09/24 02:10:00;;;;;;;7.68;3.60;;;;;;;;;;4944722;29;20031;-86
2023/09/24 02:12:26;;;;;;;9.82;3.55;;;;;;;;;;4929266;29;20040;-85
2023/09/24 02:14:52;;;;;;;8.25;3.40;;;;;;;;;;4927816;29;20039;-88
2023/09/24 02:17:20;;;;;;;9.07;3.92;;;;;;;;;;4924343;29;20028;-87
2023/09/24 02:19:46;;;;;;;9.13;3.42;;;;;;;;;;4926611;29;20027;-88
2023/09/24 02:22:11;;;;;;;12.32;4.53;;;;;;;;;;4933945;29;20087;-86
2023/09/24 02:24:40;;;;;;;6.43;3.47;;;;;;;;;;4928591;29;20056;-86
2023/09/24 02:27:07;;;;;;;6.82;3.83;;;;;;;;;;4925776;29;20036;-83
2023/09/24 02:29:33;;;;;;;7.43;3.85;;;;;;;;;;4929310;29;20032;-85
2023/09/24 02:31:59;;;;;;;10.00;4.43;;;;;;;;;;4922385;29;20032;-84
2023/09/24 02:34:25;;;;;;;12.60;4.88;;;;;;;;;;4924676;29;20032;-85
2023/09/24 02:36:53;;;;;;;10.75;4.40;;;;;;;;;;4927382;29;20060;-88
2023/09/24 02:39:22;;;;;;;14.27;5.05;;;;;;;;;;4926012;29;20043;-86
2023/09/24 02:41:49;;;;;;;11.50;5.30;;;;;;;;;;4939431;29;20398;-86
2023/09/24 02:44:17;;;;;;;14.30;5.05;;;;;;;;;;4928305;29;20035;-86
2023/09/24 02:46:44;;;;;;;16.42;5.85;;;;;;;;;;4923761;29;21793;-84
2023/09/24 02:49:10;;;;;;;22.15;6.15;;;9.50;99.90;;;;;;4929784;29;20032;-88
2023/09/24 02:51:36;;;;;;;25.27;6.50;;;;;;;;;;4927118;29;20056;-86
2023/09/24 02:54:02;;;;;;;13.43;5.68;;;;;;;;;;4941684;29;20028;-88
2023/09/24 02:56:28;;;;;;;14.52;6.03;;;;;;;;;;4926966;29;20513;-84
2023/09/24 02:58:55;;;;;;;13.45;5.88;;;;;;;;;;4922961;29;20031;-87
2023/09/24 03:01:21;;;;;;;11.75;5.75;;;;;;;;;;4925239;29;20047;-88
2023/09/24 03:03:50;;;;;;;13.75;5.55;;;;;;;;;;4924751;29;20028;-86
2023/09/24 03:06:17;;;;;;;22.42;6.78;;;;;;;;;;4928951;29;20037;-88
2023/09/24 03:08:43;;;;;;;14.88;6.63;;;;;;;;;;4941838;28;20028;-87
2023/09/24 03:11:15;;;;;;;53.95;7.88;;;;;;;;;;4930868;29;20016;-85
2023/09/24 03:13:41;;;;;;;52.53;9.00;;;;;;;;;;4943182;29;20039;-85
2023/09/24 03:16:07;;;;;;;24.08;9.38;;;;;;;;;;4921354;29;20033;-86
2023/09/24 03:18:34;;;;;;;18.33;7.97;;;;;;;;;;4926619;29;20032;-88
2023/09/24 03:21:00;;;;;;;25.10;7.88;;;;;;;;;;4925359;29;21783;-85
2023/09/24 03:23:26;;;;;;;15.95;7.97;;;;;;;;;;4927556;29;20036;-84
2023/09/24 03:25:52;;;;;;;15.77;6.63;;;;;;;;;;4924469;29;20028;-87
2023/09/24 03:28:18;;;;;;;21.98;7.50;;;;;;;;;;4929817;29;20020;-86
2023/09/24 03:30:44;;;;;;;20.23;7.60;;;;;;;;;;4931686;29;20024;-82
2023/09/24 03:33:10;;;;;;;25.00;7.28;;;;;;;;;;4933299;29;20028;-86
2023/09/24 03:35:36;;;;;;;20.55;7.70;;;;;;;;;;4927704;29;20036;-84
2023/09/24 03:38:02;;;;;;;11.60;6.07;;;;;;;;;;4923603;29;20039;-85
2023/09/24 03:40:29;;;;;;;22.85;7.30;;;;;;;;;;4927162;29;20520;-86
2023/09/24 03:42:55;;;;;;;16.60;6.03;;;9.10;99.90;;;;;;4930805;29;20044;-85
2023/09/24 03:45:23;;;;;;;15.30;6.50;;;;;;;;;;4923318;29;20051;-87
2023/09/24 03:47:49;;;;;;;13.57;6.60;;;;;;;;;;4923268;29;20043;-82
2023/09/24 03:50:17;;;;;;;12.55;6.65;;;9.20;99.90;;;;;;4925447;29;20029;-85
2023/09/24 03:52:52;;;;;;;13.40;6.72;;;;;;;;;;4939797;29;20028;-85
2023/09/24 03:55:19;;;;;;;18.33;5.75;;;;;;;;;;4921593;29;20031;-87
2023/09/24 03:57:47;;;;;;;13.80;5.95;;;;;;;;;;4920738;29;20052;-86
2023/09/24 04:00:15;;;;;;;12.07;4.97;;;;;;;;;;4926122;29;20024;-88
2023/09/24 04:02:43;;;;;;;9.45;4.32;;;;;;;;;;4926027;29;20091;-87
2023/09/24 04:05:11;;;;;;;8.50;4.05;;;;;;;;;;4923922;29;20032;-85
2023/09/24 04:07:39;;;;;;;5.65;3.58;;;;;;;;;;4942030;29;20155;-89
2023/09/24 04:10:05;;;;;;;10.40;4.18;;;;;;;;;;4943288;29;20028;-88
2023/09/24 04:12:34;;;;;;;8.25;4.03;;;;;;;;;;4926922;29;20032;-87
2023/09/24 04:15:01;;;;;;;7.00;3.85;;;;;;;;;;4925416;29;20709;-87
2023/09/24 04:17:27;;;;;;;10.05;4.22;;;;;;;;;;4929768;29;20040;-87
2023/09/24 04:19:57;;;;;;;7.38;3.88;;;;;;;;;;4934539;29;20036;-89
2023/09/24 04:22:23;;;;;;;8.98;4.72;;;;;;;;;;4927376;29;20029;-88
2023/09/24 04:24:56;;;;;;;8.23;3.55;;;;;;;;;;4923614;29;20020;-86
2023/09/24 04:27:22;;;;;;;6.75;3.85;;;;;;;;;;4928742;29;20312;-84
2023/09/24 04:29:50;;;;;;;8.90;4.47;;;;;;;;;;4941041;29;20043;-82
2023/09/24 04:32:16;;;;;;;7.82;3.90;;;;;;;;;;4926252;29;20011;-82
2023/09/24 04:34:43;;;;;;;6.88;3.75;;;;;;;;;;4929532;29;20050;-85
2023/09/24 04:37:11;;;;;;;5.43;3.25;;;;;;;;;;4928319;29;20051;-86
2023/09/24 04:39:37;;;;;;;8.60;3.90;;;;;;;;;;4929678;29;20041;-86
2023/09/24 04:42:06;;;;;;;9.52;3.90;;;;;;;;;;4929654;29;20100;-87
2023/09/24 04:44:32;;;;;;;7.57;3.67;;;;;;;;;;4936507;29;20056;-85
2023/09/24 04:46:58;;;;;;;8.40;3.80;;;;;;;;;;4947686;28;20059;-87
2023/09/24 04:49:24;;;;;;;10.27;3.88;;;;;;;;;;4928530;29;20032;-87
2023/09/24 04:51:50;;;;;;;9.45;3.80;;;;;;;;;;4927931;29;20044;-88
2023/09/24 04:54:16;;;;;;;10.20;3.92;;;;;;;;;;4932456;29;20024;-85
2023/09/24 04:56:42;;;;;;;9.35;3.85;;;;;;;;;;4927621;29;20040;-88
2023/09/24 04:59:08;;;;;;;7.15;3.50;;;;;;;;;;4929246;29;20032;-86
2023/09/24 05:01:34;;;;;;;7.25;4.03;;;;;;;;;;4939259;29;20064;-88
2023/09/24 05:04:00;;;;;;;8.65;3.95;;;8.70;99.90;;;;;;4929582;29;20036;-88
2023/09/24 05:06:27;;;;;;;8.40;4.30;;;;;;;;;;4941483;29;20143;-86
2023/09/24 05:08:54;;;;;;;6.75;3.60;;;;;;;;;;4943389;29;20033;-84
2023/09/24 05:11:20;;;;;;;9.13;4.18;;;;;;;;;;4933461;29;20024;-87
2023/09/24 05:13:47;;;;;;;10.65;4.30;;;;;;;;;;4946013;28;20032;-87
2023/09/24 05:16:13;;;;;;;7.80;3.80;;;;;;;;;;4930063;29;20039;-85
2023/09/24 05:18:39;;;;;;;9.00;3.90;;;;;;;;;;4926980;29;20102;-87
2023/09/24 05:21:13;;;;;;;7.80;4.30;;;;;;;;;;4927031;29;20063;-87
2023/09/24 05:23:39;;;;;;;8.90;4.03;;;;;;;;;;4943200;29;20032;-86
2023/09/24 05:26:10;;;;;;;10.27;4.20;;;;;;;;;;4945190;29;20091;-86
2023/09/24 05:28:36;;;;;;;9.38;4.32;;;;;;;;;;4930257;29;20051;-84
2023/09/24 05:31:02;;;;;;;8.25;4.40;;;;;;;;;;4944051;29;20096;-87
2023/09/24 05:33:29;;;;;;;7.85;4.20;;;;;;;;;;4947801;29;20028;-89
2023/09/24 05:35:57;;;;;;;9.70;3.92;;;;;;;;;;4930954;29;20021;-86
2023/09/24 05:38:26;;;;;;;7.57;4.22;;;;;;;;;;4945781;28;20025;-84
2023/09/24 05:40:52;;;;;;;11.98;4.63;;;;;;;;;;4934813;29;20036;-85
2023/09/24 05:43:20;;;;;;;12.95;5.57;;;8.60;99.90;;;;;;4933526;29;20464;-87
2023/09/24 05:45:49;;;;;;;7.63;4.53;;;;;;;;;;4932386;29;20024;-83
2023/09/24 05:48:16;;;;;;;11.75;4.40;;;;;;;;;;4936993;29;20032;-86
2023/09/24 05:50:44;;;;;;;9.25;3.75;;;;;;;;;;4935141;29;20036;-86
2023/09/24 05:53:11;;;;;;;10.85;4.40;;;;;;;;;;4940571;29;20028;-84
2023/09/24 05:55:37;;;;;;;11.43;5.00;;;;;;;;;;4933141;29;20087;-84
2023/09/24 05:58:07;;;;;;;9.77;4.55;;;;;;;;;;4933098;29;20028;-83
2023/09/24 06:00:37;;;;;;;10.13;5.03;;;;;;;;;;4937473;29;20127;-84
2023/09/24 06:03:03;;;;;;;;;;;8.70;99.90;;;;;;4947127;28;20066;-82
2023/09/24 06:05:29;;;;;;;12.82;5.75;;;;;;;;;;4949479;29;19915;-86
2023/09/24 06:07:57;;;;;;;11.20;6.72;;;;;;;;;;4932413;29;20048;-85
2023/09/24 06:10:23;;;;;;;14.68;7.70;;;;;;;;;;4935937;29;20028;-83
2023/09/24 06:12:49;;;;;;;15.48;7.95;;;;;;;;;;4930085;29;20104;-85
2023/09/24 06:15:17;;;;;;;15.90;8.30;;;;;;;;;;4932409;29;20024;-84
2023/09/24 06:17:43;;;;;;;13.20;8.32;;;;;;;;;;4946993;28;20048;-84
2023/09/24 06:20:10;;;;;;;14.35;8.73;;;;;;;;;;4933262;29;20714;-82
2023/09/24 06:22:36;;;;;;;14.63;8.90;;;;;;;;;;4950549;29;20035;-84
2023/09/24 06:25:03;;;;;;;15.23;8.75;;;;;;;;;;4932736;29;20036;-85
2023/09/24 06:27:47;;;;;;;17.95;9.05;;;;;;;;;;4941393;28;20507;-84
2023/09/24 06:30:16;;;;;;;15.32;8.63;;;;;;;;;;4931388;29;20020;-86
2023/09/24 06:32:42;;;;;;;14.93;8.45;;;;;;;;;;4921803;29;20031;-88
2023/09/24 06:35:09;;;;;;;13.68;8.27;;;;;;;;;;4935444;29;20028;-85
2023/09/24 06:37:35;;;;;;;12.10;7.00;;;;;;;;;;4933733;29;20043;-87
2023/09/24 06:40:01;;;;;;;14.27;6.90;;;;;;;;;;4948475;29;20024;-83
2023/09/24 06:42:27;;;;;;;10.98;6.75;;;;;;;;;;4936792;29;20537;-83
2023/09/24 06:44:53;;;;;;;11.25;6.70;;;;;;;;;;4937286;29;20116;-84
2023/09/24 06:47:19;;;;;;;12.23;6.50;;;;;;;;;;4932197;29;20080;-89
2023/09/24 06:49:49;;;;;;;11.05;6.43;;;9.40;99.90;;;;;;4937034;29;20031;-83
2023/09/24 06:52:15;;;;;;;10.90;6.97;;;;;;;;;;4930120;29;20028;-87
2023/09/24 06:54:41;;;;;;;11.48;6.80;;;;;;;;;;4947277;29;20099;-85
2023/09/24 06:57:07;;;;;;;11.30;6.18;;;;;;;;;;4951908;29;20024;-84
2023/09/24 06:59:33;;;;;;;7.43;4.57;;;;;;;;;;4917453;29;20132;-88
2023/09/24 07:01:59;;;;;;;8.07;4.80;;;;;;;;;;4930180;29;20020;-88
2023/09/24 07:04:25;;;;;;;11.23;6.00;;;;;;;;;;4933871;29;20036;-86
2023/09/24 07:06:51;;;;;;;11.45;5.50;;;;;;;;;;4934579;29;20509;-87
2023/09/24 07:09:18;;;;;;;11.30;6.20;;;;;;;;;;4936369;29;20035;-86
2023/09/24 07:11:44;;;;;;;8.05;4.95;;;;;;;;;;4936746;29;20036;-88
2023/09/24 07:14:10;;;;;;;9.68;4.15;;;;;;;;;;4931222;29;20060;-87
2023/09/24 07:16:47;;;;;;;7.32;4.20;;;10.10;99.90;;;;;;4962392;23;20020;-84
2023/09/24 07:19:14;;;;;;;6.03;4.07;;;;;;;;;;4953896;28;20127;-85
2023/09/24 07:21:40;;;;;;;8.95;3.97;;;10.20;99.90;;;;;;4954879;28;20027;-83
2023/09/24 07:24:12;;;;;;;9.00;3.95;;;10.40;99.90;;;;;;4956650;28;20437;-87
2023/09/24 07:26:45;;;;;;;9.10;4.30;;;10.40;99.90;;;;;;4937957;29;20464;-86
2023/09/24 07:29:25;;;;;;;6.88;3.67;;;10.50;99.90;;;;;;4937240;29;20474;-86
2023/09/24 07:32:19;;;;;;;5.45;3.42;;;10.70;99.90;;;;;;4935993;29;20039;-84
2023/09/24 07:35:02;;;;;;;5.10;3.20;;;10.90;99.90;;;;;;4938626;29;20036;-87
2023/09/24 07:40:32;;;;;;;4.68;3.10;;;11.00;99.90;;;;;;4940281;29;20051;-86
2023/09/24 07:43:01;;;;;;;8.32;3.28;;;;;;;;;;4932534;29;20382;-83
2023/09/24 07:45:50;;;;;;;7.77;3.10;;;11.30;99.90;;;;;;4945287;29;20042;-87
2023/09/24 07:48:54;;;;;;;6.50;2.75;;;11.40;99.90;;;;;;4935208;29;20679;-85
2023/09/24 07:51:25;;;;;;;5.80;3.10;;;11.60;99.90;;;;;;4936776;29;20408;-85
2023/09/24 07:54:24;;;;;;;7.50;2.72;;;11.70;99.90;;;;;;4936282;29;20613;-85
2023/09/24 07:57:13;;;;;;;5.40;2.95;;;;;;;;;;4921777;29;20032;-87
2023/09/24 08:00:23;;;;;;;5.43;3.00;;;11.90;99.90;;;;;;4920019;29;20041;-85
2023/09/24 08:07:36;;;;;;;5.80;3.15;;;12.10;99.90;;;;;;4922418;29;20047;-86
2023/09/24 08:10:52;;;;;;;7.10;2.60;;;12.30;99.90;;;;;;4908508;29;20055;-85
2023/09/24 08:13:47;;;;;;;5.00;2.75;;;12.40;99.90;;;;;;4919239;29;20044;-84
2023/09/24 08:16:45;;;;;;;5.30;2.78;;;12.60;99.90;;;;;;4923138;29;20063;-79
2023/09/24 08:22:56;;;;;;;6.63;2.38;;;12.90;99.90;;;;;;4855096;29;20533;-82
2023/09/24 08:25:22;;;;;;;5.63;2.92;;;13.20;99.90;;;;;;4845084;29;20108;-85
2023/09/24 08:27:48;;;;;;;6.38;3.35;;;13.10;99.90;;;;;;4889879;29;20112;-80
2023/09/24 08:30:14;;;;;;;5.18;2.72;;;;;;;;;;4898375;29;20039;-83
2023/09/24 08:32:39;;;;;;;6.78;2.60;;;13.70;99.90;;;;;;4933961;29;20031;-83
2023/09/24 08:35:06;;;;;;;5.85;2.90;;;;;;;;;;4945341;28;20575;-80
2023/09/24 08:37:33;;;;;;;5.25;2.83;;;13.70;99.90;;;;;;4929525;29;20043;-83
2023/09/24 08:39:59;;;;;;;5.63;2.88;;;13.70;99.90;;;;;;4932580;29;20031;-83
2023/09/24 08:42:25;;;;;;;5.32;2.25;;;14.10;99.90;;;;;;4935678;29;20505;-87
2023/09/24 08:45:09;;;;;;;4.40;2.40;;;14.20;99.90;;;;;;4925594;29;20410;-86
2023/09/24 08:47:35;;;;;;;4.32;2.33;;;;;;;;;;4932263;29;20035;-85
2023/09/24 08:50:03;;;;;;;5.88;2.65;;;;;;;;;;4923444;29;20024;-87
2023/09/24 08:52:35;;;;;;;4.82;2.58;;;14.50;99.90;;;;;;4928529;29;20036;-86
2023/09/24 08:55:06;;;;;;;4.20;2.30;;;14.70;99.90;;;;;;4945677;28;20024;-85
2023/09/24 08:57:34;;;;;;;5.00;2.72;;;14.80;99.90;;;;;;4935697;29;20028;-84
2023/09/24 09:00:00;;;;;;;8.40;2.90;;;;;;;;;;4930433;29;20035;-78
2023/09/24 09:02:26;;;;;;;9.18;2.45;;;15.10;99.90;;;;;;4935373;29;20027;-85
2023/09/24 09:04:52;;;;;;;5.00;2.20;;;;;;;;;;4932211;29;20038;-83
2023/09/24 09:07:18;;;;;;;3.67;2.30;;;;;;;;;;4940115;29;20248;-82
2023/09/24 09:10:01;;;;;;;4.70;2.28;;;15.30;99.90;;;;;;4939258;29;20027;-82
2023/09/24 09:12:27;;;;;;;6.65;2.20;;;;;;;;;;4937640;29;20513;-84
2023/09/24 09:14:53;;;;;;;3.55;2.20;;;;;;;;;;4940603;29;20490;-84
2023/09/24 09:17:19;;;;;;;5.05;1.98;;;;;;;;;;4937869;29;20028;-83
2023/09/24 09:19:53;;;;;;;4.30;2.10;;;15.70;99.90;;;;;;4935723;29;20034;-83
2023/09/24 09:22:27;;;;;;;4.03;2.00;;;15.90;99.90;;;;;;4938455;29;20031;-82
2023/09/24 09:25:03;;;;;;;6.80;2.00;;;;;;;;;;4939008;29;20043;-84
2023/09/24 09:27:42;;;;;;;4.78;1.75;;;14.50;99.90;;;;;;4936285;29;20042;-79
2023/09/24 09:30:19;;;;;;;5.65;2.15;;;16.40;99.90;;;;;;4935480;29;20028;-81
2023/09/24 09:32:46;;;;;;;4.45;1.98;;;16.50;99.90;;;;;;4937635;29;20389;-80
2023/09/24 09:35:15;;;;;;;5.15;2.10;;;16.60;99.90;;;;;;4928682;28;20047;-81
2023/09/24 09:37:43;;;;;;;4.72;1.70;;;16.90;99.90;;;;;;4935299;29;20036;-83
2023/09/24 09:40:10;;;;;;;3.88;1.40;;;17.00;99.90;;;;;;4940337;28;20039;-83
2023/09/24 09:42:39;;;;;;;4.53;1.75;;;;;;;;;;4938015;29;20071;-79
2023/09/24 09:45:09;;;;;;;3.90;1.42;;;17.30;99.90;;;;;;4934827;29;20028;-82
2023/09/24 09:47:53;;;;;;;4.47;1.75;;;17.40;99.90;;;;;;4941375;29;20042;-83
2023/09/24 09:50:24;;;;;;;4.47;1.75;;;17.50;99.90;;;;;;4938719;29;20095;-82
2023/09/24 09:52:54;;;;;;;4.47;1.50;;;17.60;99.90;;;;;;4934243;29;20036;-81
2023/09/24 09:55:20;;;;;;;1.75;1.10;;;17.50;99.90;;;;;;4926640;29;20020;-83
2023/09/24 09:57:47;;;;;;;3.58;1.40;;;17.50;99.90;;;;;;4937394;29;20138;-80
2023/09/24 10:00:14;;;;;;;4.18;1.20;;;;;;;;;;4930439;29;20100;-81
2023/09/24 10:02:42;;;;;;;1.98;1.02;;;17.60;99.90;;;;;;4935937;29;20035;-83
2023/09/24 10:05:11;;;;;;;3.17;1.10;;;17.70;99.90;;;;;;4940599;29;20032;-82
2023/09/24 10:07:40;;;;;;;2.38;1.23;;;17.60;99.90;;;;;;4952218;28;20043;-82
2023/09/24 10:10:28;;;;;;;3.22;1.10;;;17.60;99.90;;;;;;4934440;29;20102;-81
2023/09/24 10:12:54;;;;;;;3.22;1.15;;;;;;;;;;4930135;29;20032;-82
2023/09/24 10:15:27;;;;;;;2.72;1.15;;;17.70;99.90;;;;;;4927139;29;20036;-82
2023/09/24 10:18:10;;;;;;;3.50;1.35;;;17.70;99.90;;;;;;4934480;29;20035;-82
2023/09/24 10:20:59;;;;;;;3.72;1.10;;;;;;;;;;4929076;29;20047;-80
2023/09/24 10:23:31;;;;;;;4.18;1.20;;;;;;;;;;4944068;28;20178;-82
2023/09/24 10:26:00;;;;;;;2.35;1.00;;;18.10;99.90;;;;;;4924814;29;20042;-83
2023/09/24 10:28:51;;;;;;;3.85;1.25;;;18.20;99.90;;;;;;4924892;29;20032;-83
2023/09/24 10:31:20;;;;;;;3.65;1.30;;;18.30;99.90;;;;;;4933436;29;20122;-83
2023/09/24 10:33:49;;;;;;;3.00;1.23;;;;;;;;;;4927722;29;20043;-84
2023/09/24 10:36:28;;;;;;;3.75;1.30;;;;;;;;;;4947727;28;20023;-84
2023/09/24 10:39:08;;;;;;;2.75;1.05;;;18.40;99.90;;;;;;4932353;29;20955;-82
2023/09/24 10:41:35;;;;;;;3.53;1.07;;;18.50;99.90;;;;;;4939800;28;20031;-81
2023/09/24 10:44:27;;;;;;;2.78;1.33;;;18.60;99.90;;;;;;4925411;29;20028;-83
2023/09/24 10:46:53;;;;;;;3.40;1.20;;;18.80;99.90;;;;;;4928793;29;20038;-82
2023/09/24 10:49:26;;;;;;;4.03;1.30;;;18.90;99.90;;;;;;4933938;28;20032;-82
2023/09/24 10:52:01;;;;;;;3.03;1.10;;;;;;;;;;4926791;29;20052;-81
2023/09/24 10:54:28;;;;;;;2.67;1.20;;;;;;;;;;4927239;29;20548;-85
2023/09/24 10:56:54;;;;;;;2.78;1.20;;;;;;;;;;4933145;29;20039;-81
2023/09/24 10:59:32;;;;;;;2.28;1.00;;;19.00;98.80;;;;;;4923953;29;20074;-79
2023/09/24 11:01:59;;;;;;;2.85;1.10;;;;;;;;;;4923275;29;20070;-81
2023/09/24 11:04:25;;;;;;;2.80;1.00;;;18.80;98.80;;;;;;4928073;29;20028;-81
2023/09/24 11:06:51;;;;;;;1.67;1.00;;;;;;;;;;4926257;29;20036;-84
2023/09/24 11:09:21;;;;;;;6.20;1.20;;;;;;;;;;4938280;29;20052;-84
2023/09/24 11:11:47;;;;;;;4.45;1.00;;;;;;;;;;4947976;28;20027;-85
2023/09/24 11:14:24;;;;;;;3.42;1.20;;;19.00;99.10;;;;;;4930585;29;20027;-83
2023/09/24 11:16:51;;;;;;;2.03;1.05;;;;;;;;;;4926191;29;20092;-82
2023/09/24 11:19:42;;;;;;;3.75;1.30;;;19.10;98.80;;;;;;4929244;29;20031;-81
2023/09/24 11:22:21;;;;;;;2.85;1.10;;;19.20;98.20;;;;;;4931136;29;20024;-82
2023/09/24 11:25:07;;;;;;;3.30;1.10;;;19.20;97.20;;;;;;4945890;28;20108;-84
2023/09/24 11:27:49;;;;;;;3.17;1.20;;;19.10;97.90;;;;;;4927310;29;20048;-81
2023/09/24 11:30:19;;;;;;;2.58;1.05;;;19.10;98.40;;;;;;4941465;28;20385;-85
2023/09/24 11:32:48;;;;;;;2.28;1.25;;;19.30;98.70;;;;;;4944841;28;20032;-81
2023/09/24 11:35:16;;;;;;;2.92;1.17;;;19.30;97.80;;;;;;4943059;28;20028;-80
2023/09/24 11:37:49;;;;;;;2.35;1.20;;;;;;;;;;4930396;29;20028;-84
2023/09/24 11:40:33;;;;;;;3.00;1.10;;;19.30;97.50;;;;;;4930321;29;20032;-82
2023/09/24 11:42:59;;;;;;;2.45;1.27;;;19.40;97.60;;;;;;4933058;29;20039;-82
2023/09/24 11:45:49;;;;;;;2.03;1.10;;;19.30;97.60;;;;;;4943802;28;20043;-82
2023/09/24 11:48:15;;;;;;;3.35;1.13;;;;;;;;;;4934611;29;20056;-81
2023/09/24 11:50:43;;;;;;;2.95;1.10;;;19.60;98.50;;;;;;4934125;29;20047;-81
2023/09/24 11:53:09;;;;;;;3.03;1.30;;;;;;;;;;4931036;29;20035;-82
2023/09/24 11:55:35;;;;;;;3.05;1.30;;;;;;;;;;4938152;29;20147;-82
2023/09/24 11:58:03;;;;;;;4.60;1.35;;;19.80;98.00;;;;;;4938066;29;20031;-80
2023/09/24 12:00:29;;;;;;;2.85;1.20;;;;;;;;;;4929638;29;20064;-82
2023/09/24 12:02:55;;;;;;;3.65;1.42;;;;;;;;;;4936280;29;20043;-81
2023/09/24 12:05:21;;;;;;;4.00;1.10;;;;;;;;;;4935636;29;20062;-82
2023/09/24 12:07:50;;;;;;;2.30;1.25;;;20.00;97.10;;;;;;4931377;29;20174;-80
2023/09/24 12:10:18;;;;;;;3.45;1.40;;;;;;;;;;4933402;29;20023;-81
2023/09/24 12:12:44;;;;;;;3.15;1.23;;;;;;;;;;4935337;28;20027;-81
2023/09/24 12:15:13;;;;;;;2.83;1.25;;;;;;;;;;4930978;29;20027;-82
2023/09/24 12:17:39;;;;;;;2.47;1.23;;;;;;;;;;4943250;28;20114;-81
2023/09/24 12:24:27;;;;;;;3.30;1.70;;;20.00;96.50;;;;;;4917317;29;20059;-83
2023/09/24 12:28:00;;;;;;;3.15;1.40;;;20.00;96.80;;;;;;4882577;29;20034;-86
2023/09/24 12:37:29;;;;;;;3.70;1.50;;;20.20;95.20;;;;;;4853010;29;20049;-84
2023/09/24 12:39:59;;;;;;;2.90;1.55;;;20.40;94.80;;;;;;4846542;29;20026;-86
2023/09/24 12:42:31;;;;;;;3.47;1.55;;;;;;;;;;4908824;29;20543;-83
2023/09/24 12:44:58;;;;;;;3.60;1.80;;;20.60;95.10;;;;;;4940691;29;20095;-84
2023/09/24 12:47:25;;;;;;;3.47;1.40;;;;;;;;;;4936158;29;20079;-84
2023/09/24 12:49:55;;;;;;;4.57;1.60;;;20.70;95.20;;;;;;4942005;29;20039;-84
2023/09/24 12:52:21;;;;;;;3.78;1.55;;;;;;;;;;4939706;29;20028;-83
2023/09/24 12:54:47;;;;;;;3.25;1.40;;;;;;;;;;4953941;28;20074;-83
2023/09/24 12:57:13;;;;;;;3.17;1.58;;;;;;;;;;4939593;29;20032;-82
2023/09/24 12:59:40;;;;;;;5.10;1.73;;;;;;;;;;4939149;29;20710;-80
2023/09/24 13:02:06;;;;;;;4.20;1.88;;;;;;;;;;4937976;29;20063;-85
2023/09/24 13:04:34;;;;;;;4.28;1.67;;;;;;;;;;4936241;29;20039;-82
2023/09/24 13:07:00;;;;;;;2.72;1.50;;;;;;;;;;4954948;28;20110;-85
2023/09/24 13:09:26;;;;;;;4.45;1.50;;;;;;;;;;4937296;29;20020;-83
2023/09/24 13:11:52;;;;;;;4.75;1.70;;;;;;;;;;4941014;29;20507;-85
2023/09/24 13:14:19;;;;;;;4.32;1.60;;;;;;;;;;4942580;29;20081;-83
2023/09/24 13:16:46;;;;;;;4.13;1.60;;;;;;;;;;4940491;29;20028;-83
2023/09/24 13:19:12;;;;;;;2.72;1.45;;;;;;;;;;4941358;29;20038;-83
2023/09/24 13:21:39;;;;;;;2.63;1.42;;;21.10;93.70;;;;;;4939736;29;20039;-86
2023/09/24 13:24:05;;;;;;;4.35;2.17;;;;;;;;;;4929615;29;20122;-84
2023/09/24 13:26:31;;;;;;;4.97;1.88;;;;;;;;;;4939760;29;20040;-85
2023/09/24 13:28:57;;;;;;;4.88;2.10;;;;;;;;;;4939932;29;20032;-82
2023/09/24 13:31:24;;;;;;;4.00;1.60;;;;;;;;;;4936363;29;20032;-83
2023/09/24 13:33:50;;;;;;;3.20;1.70;;;;;;;;;;4937885;29;20035;-84
2023/09/24 13:36:16;;;;;;;4.18;1.60;;;;;;;;;;4942871;29;20104;-86
2023/09/24 13:38:42;;;;;;;6.03;1.88;;;;;;;;;;4941969;29;20078;-85
2023/09/24 13:41:11;;;;;;;7.10;2.00;;;20.80;93.20;;;;;;4948383;29;20111;-86
2023/09/24 13:43:38;;;;;;;3.72;1.77;;;;;;;;;;4944532;29;20059;-86
2023/09/24 13:46:04;;;;;;;4.97;2.20;;;;;;;;;;4962710;28;20035;-86
2023/09/24 13:48:30;;;;;;;3.67;1.77;;;;;;;;;;4945112;29;20059;-86
2023/09/24 13:50:56;;;;;;;2.65;1.52;;;;;;;;;;4941073;29;20047;-85
2023/09/24 13:53:22;;;;;;;3.90;1.83;;;;;;;;;;4941377;29;20024;-86
2023/09/24 13:55:49;;;;;;;4.15;1.90;;;;;;;;;;4956381;28;20079;-85
2023/09/24 13:58:15;;;;;;;5.13;1.98;;;;;;;;;;4939048;29;20032;-85
2023/09/24 14:00:51;;;;;;;4.93;1.85;;;;;;;;;;4958190;28;20036;-84
2023/09/24 14:03:19;;;;;;;3.80;1.67;;;21.50;91.40;;;;;;4960141;28;20028;-86
2023/09/24 14:05:45;;;;;;;4.43;1.95;;;;;;;;;;4940498;29;20125;-85
2023/09/24 14:13:42;;;;;;;4.40;1.60;;;;;;;;;;4938732;29;20069;-86
2023/09/24 14:16:12;;;;;;;3.10;1.65;;;21.30;90.30;;;;;;4943139;29;20028;-83
2023/09/24 14:18:38;;;;;;;5.60;1.77;;;;;;;;;;4944939;29;20023;-84
2023/09/24 14:21:11;;;;;;;3.55;1.80;;;21.40;90.20;;;;;;4938157;29;20028;-83
2023/09/24 14:23:37;;;;;;;4.00;1.52;;;;;;;;;;4940321;29;20098;-86
2023/09/24 14:26:04;;;;;;;4.85;2.00;;;;;;;;;;4947138;29;20091;-85
2023/09/24 14:28:31;;;;;;;4.22;1.50;;;;;;;;;;4945057;29;20032;-85
2023/09/24 14:30:57;;;;;;;2.75;1.52;;;;;;;;;;4940381;29;20028;-87
2023/09/24 14:33:23;;;;;;;3.88;1.90;;;;;;;;;;4945869;29;20024;-86
2023/09/24 14:35:56;;;;;;;2.42;1.50;;;;;;;;;;4941957;29;20031;-84
2023/09/24 14:38:22;;;;;;;4.35;1.77;;;;;;;;;;4940846;29;20036;-83
2023/09/24 14:40:48;;;;;;;3.42;1.80;;;;;;;;;;4939493;29;20027;-84
2023/09/24 14:43:15;;;;;;;3.00;1.80;;;;;;;;;;4937101;29;20099;-87
2023/09/24 14:45:41;;;;;;;5.35;1.90;;;;;;;;;;4938176;29;20031;-83
2023/09/24 14:48:07;;;;;;;3.75;1.58;;;;;;;;;;4940194;28;20055;-83